Time;durP1;ratioP1;P1;durP2;ratioP2;P2;SDS_P1;SDS_P2;PMS_P1;PMS_P2;Temp;Humidity;BMP_temperature;BMP_pressure;BME280_temperature;BME280_humidity;BME280_pressure;Samples;Min_cycle;Max_cycle;Signal;HPM_P1;HPM_P2
2022/09/27 00:01:25;;;;;;;6.33;5.53;;;;;;;-143.84;66.21;45075.72;5089737;28;20479;-74
2022/09/27 00:03:55;;;;;;;6.33;5.63;;;;;;;-143.84;66.44;45064.31;5089306;28;20444;-74
2022/09/27 00:06:25;;;;;;;5.93;5.43;;;;;;;-143.84;66.48;45087.16;5088652;28;20530;-74
2022/09/27 00:08:53;;;;;;;5.17;4.77;;;;;;;-143.84;66.33;45064.31;5088978;28;21002;-74
2022/09/27 00:11:26;;;;;;;9.30;6.30;;;;;;;-143.84;66.63;45056.69;5089242;28;20432;-74
2022/09/27 00:13:55;;;;;;;5.60;5.20;;;;;;;-143.84;67.08;45054.78;5088819;28;20439;-74
2022/09/27 00:16:24;;;;;;;13.13;5.90;;;;;;;-143.84;67.09;45049.06;5089291;28;20942;-74
2022/09/27 00:18:52;;;;;;;5.60;4.97;;;;;;;-143.84;67.50;45079.53;5089355;28;20531;-74
2022/09/27 00:21:19;;;;;;;6.60;5.70;;;;;;;-143.84;67.50;45071.91;5089154;28;20476;-74
2022/09/27 00:23:46;;;;;;;8.60;5.70;;;;;;;-143.84;67.81;45083.34;5089501;28;20432;-74
2022/09/27 00:26:14;;;;;;;6.03;5.43;;;;;;;-143.84;68.07;45090.97;5089053;28;20435;-74
2022/09/27 00:28:41;;;;;;;6.60;5.87;;;;;;;-143.84;68.22;45077.63;5089199;28;20440;-74
2022/09/27 00:31:19;;;;;;;9.03;6.07;;;;;;;-143.84;68.38;45073.81;5089197;28;20436;-74
2022/09/27 00:33:49;;;;;;;7.17;6.57;;;;;;;-143.84;68.62;45050.97;5088417;28;20542;-74
2022/09/27 00:36:16;;;;;;;7.23;5.50;;;;;;;-143.84;69.04;45064.31;5072331;28;20531;-74
2022/09/27 00:38:44;;;;;;;8.70;6.53;;;;;;;-143.84;69.42;45085.25;5069195;28;21387;-74
2022/09/27 00:41:15;;;;;;;6.87;6.00;;;;;;;-143.84;69.49;45079.53;5069006;28;20484;-74
2022/09/27 00:43:48;;;;;;;8.13;5.53;;;;;;;-143.84;69.74;45071.91;5068835;28;20875;-74
2022/09/27 00:46:21;;;;;;;8.47;6.37;;;;;;;-143.84;70.29;45092.88;5068837;28;20441;-74
2022/09/27 00:48:58;;;;;;;7.40;6.60;;;;;;;-143.84;70.53;45079.53;5069238;28;20498;-74
2022/09/27 00:51:25;;;;;;;6.50;5.90;;;;;;;-143.84;70.70;45090.97;5085468;28;20475;-74
2022/09/27 00:53:55;;;;;;;7.23;5.83;;;;;;;-143.84;71.06;45081.44;5089023;28;20450;-74
2022/09/27 00:56:27;;;;;;;6.80;6.20;;;;;;;-143.84;70.97;45052.88;5088542;28;20448;-74
2022/09/27 00:59:00;;;;;;;6.63;6.07;;;;;;;-143.84;70.97;45043.34;5087060;28;20443;-74
2022/09/27 01:01:29;;;;;;;10.10;6.70;;;;;;;-143.84;70.96;45108.09;5087230;28;20536;-74
2022/09/27 01:04:03;;;;;;;8.80;7.40;;;;;;;-143.84;71.17;45087.16;5087386;28;21409;-74
2022/09/27 01:06:30;;;;;;;8.63;5.53;;;;;;;-143.84;71.05;45094.78;5087354;28;20826;-74
2022/09/27 01:08:57;;;;;;;6.63;6.03;;;;;;;-143.84;70.97;45089.06;5087016;28;20496;-74
2022/09/27 01:11:35;;;;;;;9.70;6.30;;;;;;;-143.84;70.93;45049.06;5087124;28;20509;-74
2022/09/27 01:14:20;;;;;;;7.67;6.87;;;;;;;-143.84;71.01;45089.06;5088598;28;20440;-74
2022/09/27 01:16:56;;;;;;;7.20;6.60;;;;;;;-143.84;70.88;45068.13;5087436;28;20440;-74
2022/09/27 01:19:47;;;;;;;8.43;6.63;;;;;;;-143.84;71.00;45060.50;5088346;28;20501;-74
2022/09/27 01:22:17;;;;;;;7.13;6.53;;;;;;;-143.84;70.88;45098.56;5088527;28;20491;-74
2022/09/27 01:25:08;;;;;;;8.13;6.93;;;;;;;-143.84;70.94;45079.53;5088598;28;20492;-74
2022/09/27 01:28:03;;;;;;;7.33;6.63;;;;;;;-143.84;70.70;45049.06;5088457;28;20482;-74
2022/09/27 01:30:41;;;;;;;6.73;6.17;;;;;;;-143.84;70.51;45071.91;5088447;28;20945;-74
2022/09/27 01:33:32;;;;;;;6.40;6.00;;;;;;;-143.84;70.30;45083.34;5088160;28;20509;-74
2022/09/27 01:36:25;;;;;;;7.70;5.97;;;;;;;-143.84;70.40;45071.91;5088272;28;20435;-74
2022/09/27 01:39:06;;;;;;;12.37;6.47;;;;;;;-143.84;70.22;45071.91;5088345;28;20452;-74
2022/09/27 01:41:39;;;;;;;12.63;6.33;;;;;;;-143.84;70.06;45068.13;5088332;28;20485;-74
2022/09/27 01:44:13;;;;;;;6.40;5.80;;;;;;;-143.84;69.86;45075.72;5086103;28;20435;-74
2022/09/27 01:46:46;;;;;;;6.53;5.90;;;;;;;-143.84;69.87;45077.63;5071635;28;20450;-74
2022/09/27 01:49:16;;;;;;;6.57;5.90;;;;;;;-143.84;69.68;45075.72;5072713;28;20445;-74
2022/09/27 01:51:48;;;;;;;6.40;5.80;;;;;;;-143.84;69.51;45060.50;5091582;28;20496;-74
2022/09/27 01:54:19;;;;;;;9.37;5.57;;;;;;;-143.84;69.59;45090.97;5091914;28;20803;-74
2022/09/27 01:56:51;;;;;;;6.67;6.17;;;;;;;-143.84;69.11;45087.16;5092215;28;20488;-74
2022/09/27 01:59:24;;;;;;;8.47;6.17;;;;;;;-143.84;68.83;45083.34;5091766;28;20501;-74
2022/09/27 02:01:56;;;;;;;6.70;5.97;;;;;;;-143.84;68.72;45070.00;5091340;28;20540;-74
2022/09/27 02:04:30;;;;;;;7.10;6.20;;;;;;;-143.84;68.03;45070.00;5091656;28;20450;-74
2022/09/27 02:07:02;;;;;;;6.53;6.03;;;;;;;-143.84;67.83;45077.63;5091585;28;20442;-74
2022/09/27 02:09:35;;;;;;;12.03;6.00;;;;;;;-143.84;67.78;45104.28;5091561;28;20439;-74
2022/09/27 02:12:05;;;;;;;8.17;5.63;;;;;;;-143.84;67.18;45070.00;5091958;28;20869;-74
2022/09/27 02:14:39;;;;;;;11.97;6.00;;;;;;;-143.84;67.07;45056.69;5091542;28;20443;-74
2022/09/27 02:17:17;;;;;;;6.13;5.43;;;;;;;-143.84;66.73;45079.53;5091375;28;20526;-74
2022/09/27 02:19:54;;;;;;;5.67;5.27;;;;;;;-143.84;66.60;45068.13;5090858;28;20860;-75
2022/09/27 02:22:30;;;;;;;5.37;5.00;;;;;;;-143.84;66.79;45090.97;5090757;28;20483;-75
2022/09/27 02:25:00;;;;;;;7.73;5.20;;;;;;;-143.84;66.77;45066.22;5090941;28;20454;-75
2022/09/27 02:27:31;;;;;;;5.93;5.33;;;;;;;-143.84;66.48;45071.91;5091137;28;20925;-74
2022/09/27 02:30:05;;;;;;;7.40;5.80;;;;;;;-143.84;66.39;45073.81;5091339;28;20440;-74
2022/09/27 02:32:33;;;;;;;6.10;5.53;;;;;;;-143.84;66.47;45071.91;5091076;28;20436;-74
2022/09/27 02:35:06;;;;;;;5.97;5.57;;;;;;;-143.84;66.56;45073.81;5091412;28;20824;-74
2022/09/27 02:37:33;;;;;;;6.80;6.30;;;;;;;-143.84;66.80;45050.97;5091294;28;20444;-74
2022/09/27 02:40:03;;;;;;;6.17;5.67;;;;;;;-143.84;66.52;45054.78;5091149;28;20447;-74
2022/09/27 02:42:31;;;;;;;6.00;5.50;;;;;;;-143.84;66.42;45085.25;5090964;28;20490;-74
2022/09/27 02:44:58;;;;;;;5.90;5.50;;;;;;;-143.84;66.48;45071.91;5090793;28;20500;-74
2022/09/27 02:47:57;;;;;;;7.10;5.83;;;;;;;-143.84;66.50;45066.22;5091159;28;20436;-74
2022/09/27 02:50:41;;;;;;;5.67;5.20;;;;;;;-143.84;66.60;45062.41;5090680;28;20471;-74
2022/09/27 02:53:18;;;;;;;6.80;6.10;;;;;;;-143.84;66.47;45075.72;5090908;28;20440;-74
2022/09/27 02:55:53;;;;;;;6.17;5.57;;;;;;;-143.84;66.47;45100.47;5090051;28;20452;-74
2022/09/27 02:58:31;;;;;;;6.07;5.67;;;;;;;-143.84;66.34;45066.22;5090574;28;20439;-74
2022/09/27 03:01:06;;;;;;;6.03;5.27;;;;;;;-143.84;66.63;45064.31;5090656;28;20497;-74
2022/09/27 03:03:43;;;;;;;5.93;5.43;;;;;;;-143.84;66.65;45056.69;5090712;28;20478;-74
2022/09/27 03:06:14;;;;;;;7.07;6.20;;;;;;;-143.84;66.87;45058.59;5090536;28;20443;-74
2022/09/27 03:08:41;;;;;;;5.60;5.30;;;;;;;-143.84;66.69;45062.41;5090716;28;20443;-74
2022/09/27 03:11:08;;;;;;;5.80;5.50;;;;;;;-143.84;66.53;45075.72;5090754;28;20436;-74
2022/09/27 03:13:37;;;;;;;6.50;5.90;;;;;;;-143.84;66.71;45075.72;5090369;28;20444;-74
2022/09/27 03:16:06;;;;;;;5.90;5.40;;;;;;;-143.84;66.72;45066.22;5090382;28;20824;-74
2022/09/27 03:18:33;;;;;;;6.50;5.80;;;;;;;-143.84;67.02;45071.91;5072456;28;20468;-74
2022/09/27 03:21:01;;;;;;;5.93;5.50;;;;;;;-143.84;67.16;45075.72;5090647;28;20458;-74
2022/09/27 03:23:29;;;;;;;7.73;5.87;;;;;;;-143.84;66.93;45070.00;5090150;28;20474;-74
2022/09/27 03:25:56;;;;;;;13.00;6.43;;;;;;;-143.84;66.79;45077.63;5090109;28;20933;-75
2022/09/27 03:28:24;;;;;;;11.50;6.17;;;;;;;-143.84;66.90;45081.44;5089917;28;20451;-74
2022/09/27 03:30:51;;;;;;;6.77;5.50;;;;;;;-143.84;66.94;45056.69;5089999;28;20452;-75
2022/09/27 03:33:19;;;;;;;7.70;6.70;;;;;;;-143.84;66.89;45090.97;5071773;28;20950;-75
2022/09/27 03:35:46;;;;;;;7.70;6.10;;;;;;;-143.84;66.63;45092.88;5090117;28;20439;-75
2022/09/27 03:38:15;;;;;;;6.37;5.77;;;;;;;-143.84;66.69;45056.69;5089810;28;20538;-75
2022/09/27 03:40:43;;;;;;;5.70;5.30;;;;;;;-143.84;66.45;45066.22;5090101;28;20444;-75
2022/09/27 03:43:10;;;;;;;18.73;6.57;;;;;;;-143.84;66.36;45079.53;5089891;28;20490;-74
2022/09/27 03:45:37;;;;;;;6.27;5.77;;;;;;;-143.84;66.16;45039.53;5089877;28;20505;-74
2022/09/27 03:48:04;;;;;;;7.40;6.10;;;;;;;-143.84;65.82;45060.50;5079731;28;20456;-74
2022/09/27 03:50:31;;;;;;;17.97;6.10;;;;;;;-143.84;66.09;45070.00;5069394;28;20480;-74
2022/09/27 03:52:59;;;;;;;5.90;5.40;;;;;;;-143.84;65.43;45083.34;5069873;28;20441;-75
2022/09/27 03:55:28;;;;;;;11.23;6.10;;;;;;;-143.84;65.47;45087.16;5069289;28;20436;-75
2022/09/27 03:57:55;;;;;;;6.00;5.50;;;;;;;-143.84;65.59;45075.72;5079856;28;20451;-76
2022/09/27 04:00:23;;;;;;;6.33;5.93;;;;;;;-143.84;65.99;45075.72;5089509;28;20444;-75
2022/09/27 04:02:50;;;;;;;8.70;6.17;;;;;;;-143.84;65.88;45066.22;5089175;28;20475;-75
2022/09/27 04:05:18;;;;;;;8.87;6.80;;;;;;;-143.84;65.61;45066.22;5089271;28;20436;-73
2022/09/27 04:07:48;;;;;;;10.43;6.60;;;;;;;-143.84;65.61;45083.34;5089428;28;21071;-75
2022/09/27 04:10:16;;;;;;;9.43;6.20;;;;;;;-143.84;65.63;45037.66;5088950;28;20965;-75
2022/09/27 04:12:45;;;;;;;6.40;5.80;;;;;;;-143.84;65.83;45079.53;5088923;28;20442;-75
2022/09/27 04:15:12;;;;;;;20.00;6.90;;;;;;;-143.84;65.96;45081.44;5089257;28;20442;-74
2022/09/27 04:17:42;;;;;;;7.30;6.70;;;;;;;-143.84;66.00;45087.16;5089258;28;20517;-72
2022/09/27 04:20:10;;;;;;;14.60;7.27;;;;;;;-143.84;66.00;45077.63;5089239;28;20509;-74
2022/09/27 04:22:40;;;;;;;17.30;7.00;;;;;;;-143.84;66.02;45068.13;5089410;28;20981;-73
2022/09/27 04:25:09;;;;;;;8.23;6.50;;;;;;;-143.84;65.80;45062.41;5088934;28;20464;-73
2022/09/27 04:27:36;;;;;;;12.07;6.47;;;;;;;-143.84;65.89;45092.88;5073848;28;20531;-76
2022/09/27 04:30:06;;;;;;;12.73;6.83;;;;;;;-143.84;65.88;45050.97;5069080;28;20441;-73
2022/09/27 04:32:33;;;;;;;7.27;6.67;;;;;;;-143.84;66.07;45071.91;5068985;28;20543;-75
2022/09/27 04:37:45;;;;;;;7.90;6.93;;;;;;;-143.84;66.44;45060.50;5068660;28;20424;-74
2022/09/27 04:40:12;;;;;;;12.93;7.40;;;;;;;-143.84;66.42;45047.16;5068634;28;20453;-74
2022/09/27 04:42:39;;;;;;;14.30;8.30;;;;;;;-143.84;66.27;45056.69;5068352;28;20488;-74
2022/09/27 04:45:08;;;;;;;9.43;6.90;;;;;;;-143.84;66.83;45104.28;5068505;28;20456;-74
2022/09/27 04:47:36;;;;;;;7.20;6.50;;;;;;;-143.84;67.01;45056.69;5069049;28;20448;-74
2022/09/27 04:50:03;;;;;;;11.80;7.27;;;;;;;-143.84;66.82;45092.88;5068619;28;20555;-74
2022/09/27 04:52:31;;;;;;;9.47;7.13;;;;;;;-143.84;66.81;45070.00;5068428;28;20448;-74
2022/09/27 04:54:58;;;;;;;13.33;7.27;;;;;;;-143.84;66.58;45075.72;5068565;28;20441;-74
2022/09/27 04:57:25;;;;;;;15.17;7.13;;;;;;;-143.84;67.07;45083.34;5068436;28;20437;-74
2022/09/27 04:59:52;;;;;;;16.10;6.97;;;;;;;-143.84;66.85;45054.78;5069018;28;20433;-74
2022/09/27 05:02:21;;;;;;;13.33;7.30;;;;;;;-143.84;67.30;45071.91;5068441;28;20481;-74
2022/09/27 05:04:48;;;;;;;13.50;7.80;;;;;;;-143.84;67.87;45094.78;5068572;28;20996;-74
2022/09/27 05:07:15;;;;;;;12.17;7.93;;;;;;;-143.84;67.97;45070.00;5068385;28;20445;-74
2022/09/27 05:09:42;;;;;;;8.17;7.37;;;;;;;-143.84;68.19;45090.97;5068272;28;20943;-74
2022/09/27 05:12:10;;;;;;;8.57;7.53;;;;;;;-143.84;68.05;45071.91;5068259;28;20798;-74
2022/09/27 05:14:37;;;;;;;8.97;7.63;;;;;;;-143.84;68.08;45079.53;5068058;28;20448;-74
2022/09/27 05:17:06;;;;;;;10.53;7.63;;;;;;;-143.84;67.85;45083.34;5068259;28;20473;-74
2022/09/27 05:19:35;;;;;;;12.40;7.80;;;;;;;-143.84;67.72;45079.53;5068843;28;20436;-74
2022/09/27 05:22:02;;;;;;;9.77;8.20;;;;;;;-143.84;67.90;45058.59;5072531;28;20830;-73
2022/09/27 05:24:32;;;;;;;12.63;7.70;;;;;;;-143.84;67.66;45094.78;5072299;28;20436;-74
2022/09/27 05:26:59;;;;;;;11.43;7.53;;;;;;;-143.84;67.35;45092.88;5072246;28;20440;-74
2022/09/27 05:29:26;;;;;;;14.87;8.37;;;;;;;-143.84;67.37;45052.88;5072133;28;20444;-74
2022/09/27 05:31:54;;;;;;;13.87;8.17;;;;;;;-143.84;67.58;45071.91;5072580;28;20840;-74
2022/09/27 05:34:21;;;;;;;9.80;7.00;;;;;;;-143.84;66.82;45049.06;5072077;28;20444;-74
2022/09/27 05:36:50;;;;;;;11.17;6.87;;;;;;;-143.84;66.19;45071.91;5072031;28;20502;-74
2022/09/27 05:39:18;;;;;;;12.87;7.37;;;;;;;-143.84;66.07;45083.34;5071996;28;20825;-74
2022/09/27 05:41:46;;;;;;;15.27;7.30;;;;;;;-143.84;66.66;45075.72;5072117;28;20467;-73
2022/09/27 05:44:13;;;;;;;10.40;8.40;;;;;;;-143.84;67.16;45064.31;5071661;28;20567;-73
2022/09/27 05:46:40;;;;;;;10.20;6.90;;;;;;;-143.84;67.40;45056.69;5071805;28;20440;-73
2022/09/27 05:49:08;;;;;;;9.77;6.57;;;;;;;-143.84;66.68;45075.72;5071978;28;20441;-73
2022/09/27 05:51:35;;;;;;;15.53;7.73;;;;;;;-143.84;66.04;45068.13;5071567;28;20495;-73
2022/09/27 05:54:04;;;;;;;12.43;6.70;;;;;;;-143.84;65.88;45077.63;5071630;28;20452;-73
2022/09/27 05:56:31;;;;;;;10.90;6.03;;;;;;;-143.84;65.08;45060.50;5072067;28;20436;-73
2022/09/27 05:58:58;;;;;;;17.60;7.37;;;;;;;-143.84;65.49;45056.69;5071857;28;20451;-73
2022/09/27 06:01:26;;;;;;;9.00;6.10;;;;;;;-143.84;65.46;45056.69;5072167;28;20763;-73
2022/09/27 06:03:54;;;;;;;7.70;6.53;;;;;;;-143.84;64.68;45049.06;5071812;28;20483;-73
2022/09/27 06:06:21;;;;;;;8.97;6.50;;;;;;;-143.84;64.93;45052.88;5071900;28;20444;-73
2022/09/27 06:08:49;;;;;;;8.10;6.07;;;;;;;-143.84;64.93;45043.34;5071389;28;20472;-73
2022/09/27 06:11:17;;;;;;;12.30;6.10;;;;;;;-143.84;64.69;45068.13;5071415;28;20436;-73
2022/09/27 06:13:44;;;;;;;6.50;5.90;;;;;;;-143.84;62.91;45060.50;5071595;28;20437;-73
2022/09/27 06:16:12;;;;;;;7.77;5.47;;;;;;;-143.84;64.05;45047.16;5071238;28;20440;-73
2022/09/27 06:18:39;;;;;;;8.60;5.93;;;;;;;-143.84;62.95;45062.41;5071511;28;20838;-73
2022/09/27 06:21:07;;;;;;;10.47;5.90;;;;;;;-143.84;61.23;45062.41;5071249;28;20440;-73
2022/09/27 06:23:34;;;;;;;7.87;5.63;;;;;;;-143.84;59.26;45039.53;5071198;28;20480;-73
2022/09/27 06:26:03;;;;;;;9.87;4.90;;;;;;;-143.84;58.36;45056.69;5071104;28;20511;-73
2022/09/27 06:28:34;;;;;;;5.80;5.27;;;;;;;-143.84;58.10;45066.22;5071028;28;20490;-73
2022/09/27 06:31:01;;;;;;;8.40;5.80;;;;;;;-143.84;58.12;45049.06;5070197;28;20502;-73
2022/09/27 06:33:29;;;;;;;5.77;5.20;;;;;;;-143.84;58.15;45052.88;5070910;28;20445;-73
2022/09/27 06:35:56;;;;;;;6.60;5.30;;;;;;;-143.84;57.35;45064.31;5071210;28;20441;-73
2022/09/27 06:38:24;;;;;;;5.27;4.70;;;;;;;-143.84;56.02;45047.16;5071032;28;20433;-73
2022/09/27 06:40:51;;;;;;;5.97;5.27;;;;;;;-143.84;56.31;45037.66;5071301;28;20872;-73
2022/09/27 06:43:20;;;;;;;12.80;8.33;;;;;;;-143.84;57.59;45031.94;5070865;28;20484;-73
2022/09/27 06:45:49;;;;;;;11.97;6.43;;;;;;;-143.84;56.88;45045.25;5070837;28;20441;-73
2022/09/27 06:48:17;;;;;;;7.83;5.20;;;;;;;-143.84;55.54;45012.88;5070607;28;20436;-73
2022/09/27 06:50:46;;;;;;;6.57;5.30;;;;;;;-143.84;54.12;45028.13;5070542;28;21021;-73
2022/09/27 06:53:15;;;;;;;5.93;5.40;;;;;;;-143.84;55.93;45012.88;5071205;28;20448;-73
2022/09/27 06:55:43;;;;;;;11.47;7.80;;;;;;;-143.84;54.45;45043.34;5070875;28;20447;-73
2022/09/27 07:00:58;;;;;;;6.47;5.87;;;;;;;-143.84;51.90;45047.16;5070872;28;20427;-73
2022/09/27 07:03:31;;;;;;;6.97;5.27;;;;;;;-143.84;51.46;45041.44;5070466;28;20493;-74
2022/09/27 07:06:00;;;;;;;14.30;5.53;;;;;;;-143.84;51.82;45012.88;5070653;28;20473;-74
2022/09/27 07:08:28;;;;;;;13.70;5.80;;;;;;;-143.84;51.90;45028.13;5070500;28;20437;-74
2022/09/27 07:10:56;;;;;;;14.27;8.33;;;;;;;-143.84;50.87;45014.78;5070332;28;20970;-74
2022/09/27 07:13:25;;;;;;;12.97;5.77;;;;;;;-143.84;51.66;45026.22;5070764;28;20792;-74
2022/09/27 07:15:52;;;;;;;5.97;5.20;;;;;;;-143.84;51.52;45028.13;5070212;28;20490;-74
2022/09/27 07:18:21;;;;;;;8.20;5.57;;;;;;;-143.84;50.64;45026.22;5089645;28;20459;-74
2022/09/27 07:20:49;;;;;;;9.27;6.10;;;;;;;-143.84;50.70;45014.78;5090196;28;20996;-74
2022/09/27 07:23:16;;;;;;;11.53;5.40;;;;;;;-143.84;52.83;45022.41;5090313;28;20522;-74
2022/09/27 07:25:43;;;;;;;7.20;5.50;;;;;;;-143.84;55.10;45012.88;5074911;28;20437;-74
2022/09/27 07:28:15;;;;;;;10.43;5.47;;;;;;;-143.84;51.68;45037.66;5088069;28;20466;-74
2022/09/27 07:30:43;;;;;;;4.73;4.43;;;;;;;-143.84;49.29;45016.69;5090415;28;20485;-74
2022/09/27 07:33:10;;;;;;;7.13;4.90;;;;;;;-143.84;47.92;45009.09;5090215;28;20480;-74
2022/09/27 07:35:42;;;;;;;9.50;6.00;;;;;;;-143.84;49.71;45014.78;5073494;28;20437;-74
2022/09/27 07:38:12;;;;;;;13.73;8.37;;;;;;;-143.84;48.57;45005.28;5069964;28;20449;-74
2022/09/27 07:40:46;;;;;;;6.13;3.93;;;;;;;-143.84;47.37;45014.78;5069442;28;20803;-70
2022/09/27 07:43:16;;;;;;;33.20;12.50;;;;;;;-143.84;46.44;45007.19;5068615;28;20998;-70
2022/09/27 07:45:43;;;;;;;12.17;7.40;;;;;;;-143.84;47.66;45010.97;5070195;28;20452;-70
2022/09/27 07:48:13;;;;;;;7.70;5.10;;;;;;;-143.84;45.50;45007.19;5068427;28;20433;-70
2022/09/27 07:50:42;;;;;;;7.60;4.13;;;;;;;-143.84;45.52;44991.94;5067872;28;20880;-70
2022/09/27 07:53:12;;;;;;;11.50;4.00;;;;;;;-143.84;46.41;45001.47;5068415;28;20449;-70
2022/09/27 07:55:39;;;;;;;8.70;5.30;;;;;;;-143.84;45.64;44993.84;5068004;28;20449;-70
2022/09/27 07:58:08;;;;;;;6.80;4.20;;;;;;;-143.84;45.63;45014.78;5067958;28;20441;-70
2022/09/27 08:00:37;;;;;;;5.23;4.27;;;;;;;-143.84;45.98;44990.03;5068087;28;20838;-70
2022/09/27 08:03:08;;;;;;;4.50;4.10;;;;;;;-143.84;45.16;44995.75;5068199;28;20488;-70
2022/09/27 08:05:36;;;;;;;5.67;4.00;;;;;;;-143.84;44.88;44967.19;5067692;28;20441;-70
2022/09/27 08:08:05;;;;;;;5.60;3.80;;;;;;;-143.84;45.12;44999.56;5066936;28;20499;-70
2022/09/27 08:10:33;;;;;;;6.40;4.50;;;;;;;-143.84;45.36;45001.47;5066945;28;20460;-70
2022/09/27 08:13:02;;;;;;;9.50;3.73;;;;;;;-143.84;44.73;45018.59;5067196;28;20441;-70
2022/09/27 08:15:31;;;;;;;9.00;4.30;;;;;;;-143.84;44.81;44993.84;5068449;28;20548;-70
2022/09/27 08:17:59;;;;;;;6.20;3.83;;;;;;;-143.84;44.01;44974.81;5067954;28;20499;-70
2022/09/27 08:20:26;;;;;;;9.17;4.17;;;;;;;-143.84;43.93;45001.47;5068440;28;20445;-70
2022/09/27 08:22:53;;;;;;;3.83;3.53;;;;;;;-143.84;44.91;44988.13;5068920;28;20447;-70
2022/09/27 08:25:23;;;;;;;5.00;4.60;;;;;;;-143.84;44.72;45010.97;5069036;28;20442;-70
2022/09/27 08:27:56;;;;;;;4.20;3.90;;;;;;;-143.84;44.98;44988.13;5069176;28;20464;-70
2022/09/27 08:30:23;;;;;;;3.47;3.27;;;;;;;-143.84;45.18;45016.69;5069071;28;20473;-70
2022/09/27 08:32:55;;;;;;;11.00;6.17;;;;;;;-143.84;45.53;44999.56;5068692;28;20440;-70
2022/09/27 08:35:22;;;;;;;4.10;3.80;;;;;;;-143.84;44.51;45005.28;5068932;28;21208;-70
2022/09/27 08:37:54;;;;;;;6.93;4.23;;;;;;;-143.84;44.50;44982.41;5068883;28;20497;-70
2022/09/27 08:40:26;;;;;;;8.27;4.20;;;;;;;-143.84;45.13;44972.91;5069116;28;21298;-70
2022/09/27 08:43:05;;;;;;;6.33;4.20;;;;;;;-143.84;45.21;44999.56;5068625;28;20444;-70
2022/09/27 08:45:38;;;;;;;7.43;4.50;;;;;;;-143.84;45.98;45010.97;5068527;28;20448;-70
2022/09/27 08:48:06;;;;;;;10.43;4.67;;;;;;;-143.84;45.05;44982.41;5068697;28;20437;-70
2022/09/27 08:50:37;;;;;;;6.20;4.03;;;;;;;-143.84;46.36;45005.28;5068551;28;20495;-70
2022/09/27 08:53:16;;;;;;;4.70;4.30;;;;;;;-143.84;46.18;45018.59;5068820;28;20433;-70
2022/09/27 08:55:48;;;;;;;12.03;4.50;;;;;;;-143.84;46.54;44993.84;5067974;28;20444;-70
2022/09/27 08:58:21;;;;;;;11.67;3.70;;;;;;;-143.84;45.47;44972.91;5073731;28;20449;-71
2022/09/27 09:00:52;;;;;;;6.23;4.10;;;;;;;-143.84;45.24;44999.56;5068670;28;20468;-71
2022/09/27 09:03:22;;;;;;;6.20;4.37;;;;;;;-143.84;45.55;45009.09;5068254;28;20453;-71
2022/09/27 09:06:01;;;;;;;11.87;4.57;;;;;;;-143.84;45.98;45005.28;5067863;28;20498;-71
2022/09/27 09:08:38;;;;;;;7.90;4.60;;;;;;;-143.84;46.65;44995.75;5075195;28;20444;-71
2022/09/27 09:14:29;;;;;;;8.27;4.47;;;;;;;-143.84;46.00;44988.13;5088147;28;20407;-71
2022/09/27 09:17:04;;;;;;;7.53;4.60;;;;;;;-143.84;45.74;44997.66;5088654;28;20909;-71
2022/09/27 09:19:47;;;;;;;8.20;4.60;;;;;;;-143.84;45.92;44991.94;5088399;28;20439;-71
2022/09/27 09:22:33;;;;;;;12.30;4.17;;;;;;;-143.84;45.94;44993.84;5087850;28;21029;-71
2022/09/27 09:25:12;;;;;;;11.23;4.87;;;;;;;-143.84;47.55;44995.75;5087106;28;20463;-70
2022/09/27 09:27:47;;;;;;;11.13;5.00;;;;;;;-143.84;47.10;44991.94;5087261;28;20440;-70
2022/09/27 09:30:22;;;;;;;5.23;3.70;;;;;;;-143.84;46.21;45007.19;5087007;28;20481;-70
2022/09/27 09:33:05;;;;;;;9.57;4.77;;;;;;;-143.84;46.58;44993.84;5086742;28;20435;-70
2022/09/27 09:35:39;;;;;;;12.13;4.17;;;;;;;-143.84;47.61;44984.31;5086526;28;20530;-70
2022/09/27 09:38:12;;;;;;;3.83;3.50;;;;;;;-143.84;47.55;44988.13;5086775;28;20488;-70
2022/09/27 09:40:45;;;;;;;11.67;4.70;;;;;;;-143.84;47.69;44990.03;5086298;28;20432;-70
2022/09/27 09:43:19;;;;;;;14.43;3.83;;;;;;;-143.84;47.92;44995.75;5087070;28;20432;-70
2022/09/27 09:45:51;;;;;;;5.03;4.20;;;;;;;-143.84;48.83;44986.22;5086561;28;20442;-70
2022/09/27 09:48:28;;;;;;;9.00;4.80;;;;;;;-143.84;49.17;44995.75;5086441;28;20451;-70
2022/09/27 09:51:00;;;;;;;14.60;5.07;;;;;;;-143.84;49.40;44993.84;5087946;28;20476;-70
2022/09/27 09:53:40;;;;;;;13.73;4.50;;;;;;;-143.84;50.03;44995.75;5088364;28;20440;-69
2022/09/27 09:56:15;;;;;;;8.90;4.53;;;;;;;-143.84;49.57;44999.56;5088263;28;20519;-69
2022/09/27 09:58:49;;;;;;;4.90;3.73;;;;;;;-143.84;48.88;44990.03;5088177;28;20444;-69
2022/09/27 10:01:20;;;;;;;4.73;3.70;;;;;;;-143.84;49.18;44986.22;5088221;28;20957;-69
2022/09/27 10:03:48;;;;;;;10.17;4.77;;;;;;;-143.84;50.17;45018.59;5088156;28;20475;-69
2022/09/27 10:06:17;;;;;;;8.63;5.77;;;;;;;-143.84;50.19;44993.84;5090311;28;21036;-69
2022/09/27 10:08:44;;;;;;;5.17;4.03;;;;;;;-143.84;51.07;45003.38;5091907;28;20443;-74
2022/09/27 10:11:20;;;;;;;11.47;4.43;;;;;;;-143.84;50.04;44988.13;5091890;28;20798;-74
2022/09/27 10:13:49;;;;;;;12.70;4.43;;;;;;;-143.84;50.26;45007.19;5091578;28;20526;-74
2022/09/27 10:16:18;;;;;;;12.80;4.20;;;;;;;-143.84;50.11;44993.84;5091925;28;20436;-74
2022/09/27 10:18:47;;;;;;;9.10;4.00;;;;;;;-143.84;50.22;45007.19;5091633;28;20859;-74
2022/09/27 10:21:19;;;;;;;5.93;4.20;;;;;;;-143.84;50.37;45007.19;5091427;28;20493;-74
2022/09/27 10:24:08;;;;;;;25.87;4.13;;;;;;;-143.84;49.52;44957.66;5091407;28;20546;-74
2022/09/27 10:26:37;;;;;;;11.83;4.67;;;;;;;-143.84;49.85;45014.78;5091357;28;20516;-74
2022/09/27 10:29:23;;;;;;;8.13;4.47;;;;;;;-143.84;51.85;45041.44;5091192;28;20444;-74
2022/09/27 10:31:52;;;;;;;12.67;4.90;;;;;;;-143.84;55.94;44991.94;5091194;28;21251;-74
2022/09/27 10:34:25;;;;;;;8.10;4.93;;;;;;;-143.84;58.08;44990.03;5091265;28;20831;-74
2022/09/27 10:37:07;;;;;;;10.67;4.90;;;;;;;-143.84;58.56;45018.59;5089880;28;20915;-74
2022/09/27 10:42:56;;;;;;;7.53;4.77;;;;;;;-143.84;61.27;45028.13;5070798;28;20412;-76
2022/09/27 10:45:30;;;;;;;8.13;5.33;;;;;;;-143.84;61.74;45016.69;5070473;28;20522;-74
2022/09/27 10:47:59;;;;;;;8.23;5.57;;;;;;;-143.84;61.94;45033.84;5070714;28;20868;-74
2022/09/27 10:50:28;;;;;;;11.53;5.57;;;;;;;-143.84;62.88;45022.41;5070467;28;20542;-75
2022/09/27 10:53:04;;;;;;;12.43;5.10;;;;;;;-143.84;62.85;45012.88;5070800;28;20437;-75
2022/09/27 10:55:34;;;;;;;10.93;6.00;;;;;;;-143.84;62.59;45007.19;5070441;28;20452;-75
2022/09/27 10:58:02;;;;;;;11.87;5.10;;;;;;;-143.84;61.74;45024.31;5070249;28;20440;-74
2022/09/27 11:00:34;;;;;;;17.60;5.67;;;;;;;-143.84;62.84;45047.16;5069986;28;20499;-74
2022/09/27 11:03:05;;;;;;;10.67;5.27;;;;;;;-143.84;63.26;45003.38;5070253;28;20448;-74
2022/09/27 11:05:36;;;;;;;12.07;5.20;;;;;;;-143.84;63.72;45022.41;5070079;28;20537;-73
2022/09/27 11:08:22;;;;;;;16.07;4.80;;;;;;;-143.84;64.33;45026.22;5070238;28;20540;-73
2022/09/27 11:11:02;;;;;;;12.80;5.60;;;;;;;-143.84;64.39;45016.69;5070559;28;20472;-73
2022/09/27 11:13:31;;;;;;;7.37;5.40;;;;;;;-143.84;65.70;45043.34;5070307;28;20432;-73
2022/09/27 11:16:16;;;;;;;8.63;5.00;;;;;;;-143.84;65.76;45030.03;5070544;28;20444;-73
2022/09/27 11:18:54;;;;;;;12.80;5.60;;;;;;;-143.84;66.81;45050.97;5069494;28;20962;-73
2022/09/27 11:21:33;;;;;;;10.83;5.80;;;;;;;-143.84;67.95;45037.66;5070311;28;20512;-73
2022/09/27 11:24:28;;;;;;;14.03;5.80;;;;;;;-143.84;69.71;45052.88;5070366;28;20441;-71
2022/09/27 11:27:06;;;;;;;8.63;6.10;;;;;;;-143.84;70.98;45041.44;5069982;28;20445;-71
2022/09/27 11:29:45;;;;;;;12.10;5.90;;;;;;;-143.84;71.23;45049.06;5069849;28;20436;-71
2022/09/27 11:32:31;;;;;;;11.13;5.57;;;;;;;-143.84;71.60;45030.03;5069901;28;20440;-71
2022/09/27 11:35:25;;;;;;;8.43;6.17;;;;;;;-143.84;71.27;45037.66;5069856;28;20509;-71
2022/09/27 11:38:00;;;;;;;11.60;6.10;;;;;;;-143.84;72.41;45045.25;5069833;28;20440;-71
2022/09/27 11:40:35;;;;;;;9.80;6.53;;;;;;;-143.84;73.46;45037.66;5069777;28;20447;-71
2022/09/27 11:43:26;;;;;;;7.80;6.17;;;;;;;-143.84;73.62;45049.06;5069719;28;20440;-70
2022/09/27 11:46:02;;;;;;;19.90;7.03;;;;;;;-143.84;72.62;45037.66;5069554;28;20549;-72